Latest Coastal Weather Observations for Aireys Inlet

IDV60701

Issued at 10:45 am EST Tuesday 29 July 2014 (issued every 10 minutes, with the page automatically refreshed every 10 minutes)

About coastal observations | Map of coastal stations | Coastal observations for VIC | Marine services | Other Formats
Station Details ID: 090180 Name: AIREYS INLET Lat: -38.46 Lon: 144.09 Height: 95.0 m
Data from the previous 72 hours. | See also: Recent months at Aireys Inlet
Date/Time
EST
Temp

°C
Wind Pressure Rain
since 9am
mm
Weather Cloud Vis
km
Sea
Height
m
Swell
Dir
 
Speed
knots
Gust
knots
hPa Trend Height
m
Period
s
Dir
29/10:30am 13.5 NW 20 38 - - 0.0 - - - - - - -
29/10:00am 13.2 NW 16 39 - - 0.0 - - - - - - -
29/09:30am 12.5 NW 23 36 - - 0.0 - - - - - - -
29/09:00am 12.2 NW 23 36 - - 0.0 - - - - - - -
29/08:30am 11.9 NW 20 37 - - 0.0 - - - - - - -
29/08:00am 11.6 NW 15 31 - - 0.0 - - - - - - -
29/07:52am 11.4 NW 19 31 - - 0.0 - - - - - - -
29/07:30am 11.6 NNW 7 20 - - 0.0 - - - - - - -
29/07:01am 11.0 NNW 16 27 - - 0.0 - - - - - - -
29/07:00am 11.0 NNW 17 27 - - 0.0 - - - - - - -
29/06:30am 11.4 NW 29 45 - - 0.0 - - - - - - -
29/06:00am 11.5 NW 32 51 - - 0.0 - - - - - - -
29/05:30am 11.8 NW 30 52 - - 0.0 - - - - - - -
29/05:00am 11.9 NW 30 45 - - 0.0 - - - - - - -
29/04:30am 12.1 NW 33 52 - - 0.0 - - - - - - -
29/04:00am 12.0 NW 30 43 - - 0.0 - - - - - - -
29/03:30am 12.4 NW 28 41 - - 0.0 - - - - - - -
29/03:00am 12.4 NW 25 40 - - 0.0 - - - - - - -
29/02:30am 12.1 NW 20 31 - - 0.0 - - - - - - -
29/02:15am 12.1 NW 15 30 - - 0.0 - - - - - - -
29/02:00am 11.9 NW 14 24 - - 0.0 - - - - - - -
29/01:57am 11.9 NW 16 24 - - 0.0 - - - - - - -
29/01:30am 11.8 N 5 14 - - 0.0 - - - - - - -
29/01:00am 11.7 NNE 5 11 - - 0.0 - - - - - - -
29/12:30am 11.2 NE 5 8 - - 0.0 - - - - - - -
29/12:00am 11.7 N 5 10 - - 0.0 - - - - - - -
 
Date/Time
EST
Temp

°C
Wind Pressure Rain
since 9am
mm
Weather Cloud Vis
km
Sea
Height
m
Swell
Dir
 
Speed
knots
Gust
knots
hPa Trend Height
m
Period
s
Dir
28/11:30pm 11.7 N 5 11 - - 0.0 - - - - - - -
28/11:00pm 11.9 NNW 8 12 - - 0.0 - - - - - - -
28/10:30pm 12.2 NNW 10 25 - - 0.0 - - - - - - -
28/10:00pm 12.3 NNW 11 20 - - 0.0 - - - - - - -
28/09:30pm 12.6 NW 15 30 - - 0.0 - - - - - - -
28/09:09pm 12.6 NW 15 25 - - 0.0 - - - - - - -
28/09:00pm 12.6 NW 14 24 - - 0.0 - - - - - - -
28/08:30pm 12.6 NW 12 19 - - 0.0 - - - - - - -
28/08:00pm 12.5 NNW 4 8 - - 0.0 - - - - - - -
28/07:30pm 12.5 ESE 4 7 - - 0.0 - - - - - - -
28/07:00pm 12.8 E 2 5 - - 0.0 - - - - - - -
28/06:30pm 13.4 ESE 4 8 - - 0.0 - - - - - - -
28/06:00pm 13.9 NW 5 10 - - 0.0 - - - - - - -
28/05:32pm 14.1 NW 16 27 - - 0.0 - - - - - - -
28/05:30pm 14.0 NW 17 26 - - 0.0 - - - - - - -
28/05:00pm 14.6 NW 21 32 - - 0.0 - - - - - - -
28/04:30pm 15.1 NW 24 35 - - 0.0 - - - - - - -
28/04:00pm 15.3 NW 24 40 - - 0.0 - - - - - - -
28/03:30pm 15.5 NW 24 34 - - 0.0 - - - - - - -
28/03:00pm 15.4 NW 23 36 - - 0.0 - - - - - - -
28/02:30pm 15.8 NW 25 37 - - 0.0 - - - - - - -
28/02:00pm 15.7 NW 23 34 - - 0.0 - - - - - - -
28/01:30pm 15.7 NW 20 35 - - 0.0 - - - - - - -
28/01:03pm 15.9 NW 15 27 - - 0.0 - - - - - - -
28/01:00pm 15.7 NW 14 27 - - 0.0 - - - - - - -
28/12:30pm 15.1 NW 15 25 - - 0.0 - - - - - - -
28/12:29pm 15.0 NW 15 25 - - 0.0 - - - - - - -
28/12:00pm 14.5 NW 13 21 - - 0.0 - - - - - - -
28/11:30am 13.9 NNW 9 20 - - 0.0 - - - - - - -
28/11:00am 13.2 WNW 5 14 - - 0.0 - - - - - - -
28/10:30am 11.2 NE 8 12 - - 0.0 - - - - - - -
28/10:00am 10.0 NE 7 11 - - 0.0 - - - - - - -
28/09:30am 9.9 NNE 6 9 - - 0.0 - - - - - - -
28/09:00am 10.2 NNE 8 12 - - 0.0 - - - - - - -
28/08:30am 9.5 NNE 8 11 - - 0.0 - - - - - - -
28/08:00am 8.6 NNE 8 10 - - 0.0 - - - - - - -
28/07:30am 8.5 NE 7 10 - - 0.0 - - - - - - -
28/07:00am 8.6 NE 7 10 - - 0.0 - - - - - - -
28/06:30am 8.3 NE 6 8 - - 0.0 - - - - - - -
28/06:00am 8.8 ENE 5 7 - - 0.0 - - - - - - -
28/05:30am 8.8 ENE 5 8 - - 0.0 - - - - - - -
28/05:00am 8.8 ENE 7 10 - - 0.0 - - - - - - -
28/04:30am 8.6 NE 7 12 - - 0.0 - - - - - - -
28/04:00am 9.1 NE 8 13 - - 0.0 - - - - - - -
28/03:30am 8.9 NE 8 17 - - 0.0 - - - - - - -
28/03:00am 8.6 NNE 9 15 - - 0.0 - - - - - - -
28/02:30am 8.3 NNE 8 12 - - 0.0 - - - - - - -
28/02:00am 8.6 NE 9 12 - - 0.0 - - - - - - -
28/01:30am 8.5 NNE 6 8 - - 0.0 - - - - - - -
28/01:00am 9.0 N 7 8 - - 0.0 - - - - - - -
28/12:30am 9.4 N 7 9 - - 0.0 - - - - - - -
28/12:00am 9.7 N 8 11 - - 0.0 - - - - - - -
 
Date/Time
EST
Temp

°C
Wind Pressure Rain
since 9am
mm
Weather Cloud Vis
km
Sea
Height
m
Swell
Dir
 
Speed
knots
Gust
knots
hPa Trend Height
m
Period
s
Dir
27/11:30pm 9.8 N 7 11 - - 0.0 - - - - - - -
27/11:00pm 9.2 NNW 7 11 - - 0.0 - - - - - - -
27/10:30pm 9.9 N 12 17 - - 0.0 - - - - - - -
27/10:00pm 9.9 NNW 13 20 - - 0.0 - - - - - - -
27/09:30pm 10.4 N 10 18 - - 0.0 - - - - - - -
27/09:00pm 10.7 N 14 23 - - 0.0 - - - - - - -
27/08:30pm 10.8 N 11 18 - - 0.0 - - - - - - -
27/08:00pm 11.2 N 15 21 - - 0.0 - - - - - - -
27/07:30pm 11.0 N 11 15 - - 0.0 - - - - - - -
27/07:00pm 11.1 N 9 13 - - 0.0 - - - - - - -
27/06:30pm 11.4 N 9 13 - - 0.0 - - - - - - -
27/06:00pm 12.3 N 8 12 - - 0.0 - - - - - - -
27/05:30pm 12.8 N 10 14 - - 0.0 - - - - - - -
27/05:00pm 13.1 N 8 14 - - 0.0 - - - - - - -
27/04:30pm 13.5 N 12 17 - - 0.0 - - - - - - -
27/04:00pm 13.7 N 11 20 - - 0.0 - - - - - - -
27/03:30pm 13.9 N 10 19 - - 0.0 - - - - - - -
27/03:00pm 14.2 NNW 10 20 - - 0.0 - - - - - - -
27/02:30pm 14.4 NNW 10 19 - - 0.0 - - - - - - -
27/02:00pm 14.4 NNW 12 21 - - 0.0 - - - - - - -
27/01:36pm 15.0 NNW 15 26 - - 0.0 - - - - - - -
27/01:30pm 14.7 NNW 17 26 - - 0.0 - - - - - - -
27/01:00pm 14.6 NW 22 30 - - 0.0 - - - - - - -
27/12:30pm 14.0 NW 24 35 - - 0.0 - - - - - - -
27/12:00pm 13.4 NW 25 35 - - 0.0 - - - - - - -
27/11:30am 12.8 NNW 16 27 - - 0.0 - - - - - - -
27/11:27am 12.9 NNW 15 27 - - 0.0 - - - - - - -
27/11:00am 12.6 NNW 12 20 - - 0.0 - - - - - - -
27/10:30am 10.9 NNE 5 11 - - 0.0 - - - - - - -
27/10:00am 10.4 NE 5 10 - - 0.0 - - - - - - -
27/09:30am 10.3 NNE 6 9 - - 0.0 - - - - - - -
27/09:00am 9.7 N 5 7 - - 0.0 - - - - - - -
27/08:30am 9.3 NNW 7 12 - - 0.0 - - - - - - -
27/08:00am 8.4 NNW 10 14 - - 0.0 - - - - - - -
27/07:30am 8.6 NW 12 16 - - 0.0 - - - - - - -
27/07:00am 8.1 NW 9 15 - - 0.0 - - - - - - -
27/06:30am 8.3 NW 5 12 - - 0.0 - - - - - - -
27/06:00am 8.7 NW 6 8 - - 0.0 - - - - - - -
27/05:30am 9.0 NW 14 19 - - 0.0 - - - - - - -
27/05:00am 6.8 NNW 5 11 - - 0.0 - - - - - - -
27/04:30am 6.8 NNW 4 7 - - 0.0 - - - - - - -
27/04:00am 6.0 NNE 5 6 - - 0.0 - - - - - - -
27/03:30am 6.5 NNE 5 6 - - 0.0 - - - - - - -
27/03:00am 8.2 NNW 3 4 - - 0.0 - - - - - - -
27/02:30am 9.4 WNW 6 10 - - 0.0 - - - - - - -
27/02:00am 8.8 NW 11 13 - - 0.0 - - - - - - -
27/01:30am 9.6 NW 12 14 - - 0.0 - - - - - - -
27/01:00am 9.7 WNW 8 11 - - 0.0 - - - - - - -
27/12:30am 9.0 W 7 9 - - 0.0 - - - - - - -
27/12:00am 9.4 W 8 10 - - 0.0 - - - - - - -
 
Date/Time
EST
Temp

°C
Wind Pressure Rain
since 9am
mm
Weather Cloud Vis
km
Sea
Height
m
Swell
Dir
 
Speed
knots
Gust
knots
hPa Trend Height
m
Period
s
Dir
26/11:30pm 9.4 W 6 7 - - 0.0 - - - - - - -
26/11:00pm 10.5 W 8 10 - - 0.0 - - - - - - -
26/10:30pm 10.3 W 9 11 - - 0.0 - - - - - - -
26/10:00pm 10.3 WNW 7 10 - - 0.0 - - - - - - -
26/09:30pm 10.5 W 7 11 - - 0.0 - - - - - - -
26/09:00pm 10.9 WNW 5 8 - - 0.0 - - - - - - -
26/08:30pm 10.7 WSW 6 10 - - 0.0 - - - - - - -
26/08:00pm 11.3 WSW 6 9 - - 0.0 - - - - - - -
26/07:30pm 11.6 W 7 11 - - 0.0 - - - - - - -
26/07:00pm 11.7 WSW 8 13 - - 0.0 - - - - - - -
26/06:30pm 11.9 W 10 15 - - 0.0 - - - - - - -
26/06:00pm 11.6 WNW 7 9 - - 0.0 - - - - - - -
26/05:30pm 11.6 W 7 11 - - 0.0 - - - - - - -
26/05:00pm 11.9 WNW 9 13 - - 0.0 - - - - - - -
26/04:30pm 11.9 WNW 9 14 - - 0.0 - - - - - - -
26/04:00pm 12.2 WNW 8 13 - - 0.0 - - - - - - -
26/03:30pm 12.7 W 6 10 - - 0.0 - - - - - - -
26/03:00pm 12.6 W 8 16 - - 0.0 - - - - - - -
26/02:30pm 12.9 W 8 14 - - 0.0 - - - - - - -
26/02:00pm 13.0 WNW 7 12 - - 0.0 - - - - - - -
26/01:30pm 12.6 W 6 8 - - 0.0 - - - - - - -
26/01:00pm 12.5 W 7 12 - - 0.0 - - - - - - -
26/12:30pm 12.6 NW 9 14 - - 0.0 - - - - - - -
26/12:00pm 12.6 WNW 10 15 - - 0.0 - - - - - - -
26/11:30am 12.7 NW 8 14 - - 0.0 - - - - - - -
26/11:00am 12.3 NW 8 13 - - 0.0 - - - - - - -

Other Formats:

Comma delimited format used in spreadsheet applications
http://www.bom.gov.au/fwo/IDV60701/IDV60701.94846.axf

JavaScript Object Notation format (JSON) in row-major order
http://www.bom.gov.au/fwo/IDV60701/IDV60701.94846.json